sensor_id;sensor_type;location;lat;lon;timestamp;P1;durP1;ratioP1;P2;durP2;ratioP2
61385;SDS011;47256;18.904;-99.054;2023-12-04T00:01:27;18.83;;;7.78;;
61385;SDS011;47256;18.904;-99.054;2023-12-04T00:03:54;25.50;;;7.97;;
61385;SDS011;47256;18.904;-99.054;2023-12-04T00:06:22;19.33;;;9.15;;
61385;SDS011;47256;18.904;-99.054;2023-12-04T00:08:50;20.63;;;8.50;;
61385;SDS011;47256;18.904;-99.054;2023-12-04T00:11:17;19.77;;;7.50;;
61385;SDS011;47256;18.904;-99.054;2023-12-04T00:13:44;19.30;;;8.27;;
61385;SDS011;47256;18.904;-99.054;2023-12-04T00:16:11;14.20;;;8.20;;
61385;SDS011;47256;18.904;-99.054;2023-12-04T00:18:39;15.57;;;6.93;;
61385;SDS011;47256;18.904;-99.054;2023-12-04T00:21:07;18.13;;;8.48;;
61385;SDS011;47256;18.904;-99.054;2023-12-04T00:23:34;15.43;;;7.65;;
61385;SDS011;47256;18.904;-99.054;2023-12-04T00:26:02;18.65;;;8.45;;
61385;SDS011;47256;18.904;-99.054;2023-12-04T00:28:29;12.40;;;8.18;;
61385;SDS011;47256;18.904;-99.054;2023-12-04T00:30:58;13.90;;;9.10;;
61385;SDS011;47256;18.904;-99.054;2023-12-04T00:33:25;17.83;;;8.90;;
61385;SDS011;47256;18.904;-99.054;2023-12-04T00:35:53;18.23;;;8.20;;
61385;SDS011;47256;18.904;-99.054;2023-12-04T00:38:20;15.25;;;7.43;;
61385;SDS011;47256;18.904;-99.054;2023-12-04T00:40:47;12.55;;;8.13;;
61385;SDS011;47256;18.904;-99.054;2023-12-04T00:43:14;22.67;;;11.65;;
61385;SDS011;47256;18.904;-99.054;2023-12-04T00:45:42;25.35;;;10.77;;
61385;SDS011;47256;18.904;-99.054;2023-12-04T00:48:09;21.55;;;12.68;;
61385;SDS011;47256;18.904;-99.054;2023-12-04T00:50:37;25.08;;;14.30;;
61385;SDS011;47256;18.904;-99.054;2023-12-04T00:53:05;17.48;;;11.40;;
61385;SDS011;47256;18.904;-99.054;2023-12-04T00:55:33;17.05;;;11.20;;
61385;SDS011;47256;18.904;-99.054;2023-12-04T00:58:00;23.73;;;11.23;;
61385;SDS011;47256;18.904;-99.054;2023-12-04T01:00:28;33.45;;;12.52;;
61385;SDS011;47256;18.904;-99.054;2023-12-04T01:02:55;17.77;;;11.73;;
61385;SDS011;47256;18.904;-99.054;2023-12-04T01:05:23;18.75;;;11.23;;
61385;SDS011;47256;18.904;-99.054;2023-12-04T01:07:50;17.35;;;11.30;;
61385;SDS011;47256;18.904;-99.054;2023-12-04T01:10:19;17.67;;;11.45;;
61385;SDS011;47256;18.904;-99.054;2023-12-04T01:12:47;21.83;;;11.20;;
61385;SDS011;47256;18.904;-99.054;2023-12-04T01:15:14;16.05;;;11.15;;
61385;SDS011;47256;18.904;-99.054;2023-12-04T01:17:41;21.15;;;10.73;;
61385;SDS011;47256;18.904;-99.054;2023-12-04T01:20:10;20.45;;;11.18;;
61385;SDS011;47256;18.904;-99.054;2023-12-04T01:22:37;17.20;;;11.48;;
61385;SDS011;47256;18.904;-99.054;2023-12-04T01:25:04;17.10;;;11.18;;
61385;SDS011;47256;18.904;-99.054;2023-12-04T01:27:32;17.35;;;11.02;;
61385;SDS011;47256;18.904;-99.054;2023-12-04T01:30:01;15.77;;;10.30;;
61385;SDS011;47256;18.904;-99.054;2023-12-04T01:32:28;24.00;;;12.27;;
61385;SDS011;47256;18.904;-99.054;2023-12-04T01:34:56;14.70;;;9.40;;
61385;SDS011;47256;18.904;-99.054;2023-12-04T01:37:24;17.48;;;8.40;;
61385;SDS011;47256;18.904;-99.054;2023-12-04T01:39:52;9.18;;;7.78;;
61385;SDS011;47256;18.904;-99.054;2023-12-04T01:42:20;13.35;;;8.52;;
61385;SDS011;47256;18.904;-99.054;2023-12-04T01:44:47;16.48;;;8.73;;
61385;SDS011;47256;18.904;-99.054;2023-12-04T01:47:14;11.88;;;8.00;;
61385;SDS011;47256;18.904;-99.054;2023-12-04T01:49:43;13.50;;;7.53;;
61385;SDS011;47256;18.904;-99.054;2023-12-04T01:52:10;14.73;;;7.25;;
61385;SDS011;47256;18.904;-99.054;2023-12-04T01:54:39;12.95;;;7.18;;
61385;SDS011;47256;18.904;-99.054;2023-12-04T01:57:06;11.77;;;7.53;;
61385;SDS011;47256;18.904;-99.054;2023-12-04T01:59:35;11.80;;;7.57;;
61385;SDS011;47256;18.904;-99.054;2023-12-04T02:02:03;18.48;;;8.93;;
61385;SDS011;47256;18.904;-99.054;2023-12-04T02:04:31;15.68;;;8.60;;
61385;SDS011;47256;18.904;-99.054;2023-12-04T02:06:59;16.23;;;8.75;;
61385;SDS011;47256;18.904;-99.054;2023-12-04T02:09:26;19.55;;;10.75;;
61385;SDS011;47256;18.904;-99.054;2023-12-04T02:11:54;16.40;;;10.07;;
61385;SDS011;47256;18.904;-99.054;2023-12-04T02:14:22;17.65;;;9.10;;
61385;SDS011;47256;18.904;-99.054;2023-12-04T02:16:50;15.50;;;8.55;;
61385;SDS011;47256;18.904;-99.054;2023-12-04T02:19:25;12.30;;;7.90;;
61385;SDS011;47256;18.904;-99.054;2023-12-04T02:21:52;12.48;;;8.35;;
61385;SDS011;47256;18.904;-99.054;2023-12-04T02:24:19;17.90;;;8.07;;
61385;SDS011;47256;18.904;-99.054;2023-12-04T02:26:53;12.25;;;8.38;;
61385;SDS011;47256;18.904;-99.054;2023-12-04T02:29:40;15.73;;;8.10;;
61385;SDS011;47256;18.904;-99.054;2023-12-04T02:32:14;13.30;;;9.05;;
61385;SDS011;47256;18.904;-99.054;2023-12-04T02:34:45;17.90;;;8.55;;
61385;SDS011;47256;18.904;-99.054;2023-12-04T02:37:14;19.63;;;9.25;;
61385;SDS011;47256;18.904;-99.054;2023-12-04T02:39:43;16.88;;;9.90;;
61385;SDS011;47256;18.904;-99.054;2023-12-04T02:42:12;17.25;;;8.88;;
61385;SDS011;47256;18.904;-99.054;2023-12-04T02:44:40;17.23;;;10.02;;
61385;SDS011;47256;18.904;-99.054;2023-12-04T02:47:08;20.67;;;11.35;;
61385;SDS011;47256;18.904;-99.054;2023-12-04T02:49:35;24.25;;;14.75;;
61385;SDS011;47256;18.904;-99.054;2023-12-04T02:52:03;27.77;;;14.18;;
61385;SDS011;47256;18.904;-99.054;2023-12-04T02:54:31;21.55;;;10.68;;
61385;SDS011;47256;18.904;-99.054;2023-12-04T02:56:58;13.20;;;8.82;;
61385;SDS011;47256;18.904;-99.054;2023-12-04T02:59:26;16.40;;;10.70;;
61385;SDS011;47256;18.904;-99.054;2023-12-04T03:01:54;23.15;;;10.27;;
61385;SDS011;47256;18.904;-99.054;2023-12-04T03:04:21;17.85;;;10.32;;
61385;SDS011;47256;18.904;-99.054;2023-12-04T03:06:49;19.02;;;9.30;;
61385;SDS011;47256;18.904;-99.054;2023-12-04T03:09:16;21.80;;;9.90;;
61385;SDS011;47256;18.904;-99.054;2023-12-04T03:11:44;24.92;;;10.48;;
61385;SDS011;47256;18.904;-99.054;2023-12-04T03:14:12;14.90;;;8.45;;
61385;SDS011;47256;18.904;-99.054;2023-12-04T03:16:40;17.38;;;8.68;;
61385;SDS011;47256;18.904;-99.054;2023-12-04T03:19:07;16.25;;;8.55;;
61385;SDS011;47256;18.904;-99.054;2023-12-04T03:21:35;12.05;;;8.40;;
61385;SDS011;47256;18.904;-99.054;2023-12-04T03:24:03;12.95;;;8.32;;
61385;SDS011;47256;18.904;-99.054;2023-12-04T03:26:36;10.73;;;7.95;;
61385;SDS011;47256;18.904;-99.054;2023-12-04T03:29:03;11.13;;;8.35;;
61385;SDS011;47256;18.904;-99.054;2023-12-04T03:31:31;13.52;;;8.55;;
61385;SDS011;47256;18.904;-99.054;2023-12-04T03:34:00;11.68;;;7.68;;
61385;SDS011;47256;18.904;-99.054;2023-12-04T03:36:27;17.27;;;8.80;;
61385;SDS011;47256;18.904;-99.054;2023-12-04T03:38:54;12.25;;;7.90;;
61385;SDS011;47256;18.904;-99.054;2023-12-04T03:41:21;14.32;;;7.68;;
61385;SDS011;47256;18.904;-99.054;2023-12-04T03:43:49;11.07;;;7.55;;
61385;SDS011;47256;18.904;-99.054;2023-12-04T03:46:16;15.38;;;7.68;;
61385;SDS011;47256;18.904;-99.054;2023-12-04T03:48:43;11.52;;;8.13;;
61385;SDS011;47256;18.904;-99.054;2023-12-04T03:51:12;11.55;;;8.13;;
61385;SDS011;47256;18.904;-99.054;2023-12-04T03:53:40;15.57;;;8.75;;
61385;SDS011;47256;18.904;-99.054;2023-12-04T03:56:08;11.70;;;7.68;;
61385;SDS011;47256;18.904;-99.054;2023-12-04T03:58:38;14.30;;;8.23;;
61385;SDS011;47256;18.904;-99.054;2023-12-04T04:01:13;12.23;;;7.82;;
61385;SDS011;47256;18.904;-99.054;2023-12-04T04:03:41;12.93;;;7.78;;
61385;SDS011;47256;18.904;-99.054;2023-12-04T04:06:08;14.43;;;8.40;;
61385;SDS011;47256;18.904;-99.054;2023-12-04T04:08:36;11.63;;;7.50;;
61385;SDS011;47256;18.904;-99.054;2023-12-04T04:11:03;10.23;;;7.07;;
61385;SDS011;47256;18.904;-99.054;2023-12-04T04:13:30;14.00;;;7.43;;
61385;SDS011;47256;18.904;-99.054;2023-12-04T04:15:58;9.98;;;7.32;;
61385;SDS011;47256;18.904;-99.054;2023-12-04T04:18:25;9.18;;;6.95;;
61385;SDS011;47256;18.904;-99.054;2023-12-04T04:20:53;13.50;;;8.85;;
61385;SDS011;47256;18.904;-99.054;2023-12-04T04:23:20;11.13;;;8.52;;
61385;SDS011;47256;18.904;-99.054;2023-12-04T04:25:48;14.73;;;8.93;;
61385;SDS011;47256;18.904;-99.054;2023-12-04T04:28:15;14.90;;;9.27;;
61385;SDS011;47256;18.904;-99.054;2023-12-04T04:30:43;11.95;;;8.95;;
61385;SDS011;47256;18.904;-99.054;2023-12-04T04:33:10;18.65;;;9.20;;
61385;SDS011;47256;18.904;-99.054;2023-12-04T04:35:38;17.90;;;9.65;;
61385;SDS011;47256;18.904;-99.054;2023-12-04T04:38:05;15.32;;;9.38;;
61385;SDS011;47256;18.904;-99.054;2023-12-04T04:40:32;12.75;;;8.55;;
61385;SDS011;47256;18.904;-99.054;2023-12-04T04:43:00;16.38;;;10.43;;
61385;SDS011;47256;18.904;-99.054;2023-12-04T04:45:27;15.77;;;10.23;;
61385;SDS011;47256;18.904;-99.054;2023-12-04T04:47:54;21.27;;;11.88;;
61385;SDS011;47256;18.904;-99.054;2023-12-04T04:50:22;16.25;;;10.02;;
61385;SDS011;47256;18.904;-99.054;2023-12-04T04:52:49;14.60;;;9.95;;
61385;SDS011;47256;18.904;-99.054;2023-12-04T04:55:17;15.70;;;9.55;;
61385;SDS011;47256;18.904;-99.054;2023-12-04T04:57:44;11.18;;;8.93;;
61385;SDS011;47256;18.904;-99.054;2023-12-04T05:00:18;15.73;;;9.10;;
61385;SDS011;47256;18.904;-99.054;2023-12-04T05:02:46;14.00;;;9.38;;
61385;SDS011;47256;18.904;-99.054;2023-12-04T05:05:14;79.75;;;14.43;;
61385;SDS011;47256;18.904;-99.054;2023-12-04T05:07:41;33.28;;;12.88;;
61385;SDS011;47256;18.904;-99.054;2023-12-04T05:10:08;20.65;;;11.05;;
61385;SDS011;47256;18.904;-99.054;2023-12-04T05:12:36;25.35;;;9.75;;
61385;SDS011;47256;18.904;-99.054;2023-12-04T05:15:04;20.33;;;8.45;;
61385;SDS011;47256;18.904;-99.054;2023-12-04T05:17:32;21.02;;;7.63;;
61385;SDS011;47256;18.904;-99.054;2023-12-04T05:20:00;14.90;;;7.68;;
61385;SDS011;47256;18.904;-99.054;2023-12-04T05:22:28;11.48;;;7.00;;
61385;SDS011;47256;18.904;-99.054;2023-12-04T05:24:55;16.25;;;6.72;;
61385;SDS011;47256;18.904;-99.054;2023-12-04T05:27:23;15.50;;;8.38;;
61385;SDS011;47256;18.904;-99.054;2023-12-04T05:29:50;16.83;;;8.13;;
61385;SDS011;47256;18.904;-99.054;2023-12-04T05:32:17;14.57;;;8.27;;
61385;SDS011;47256;18.904;-99.054;2023-12-04T05:34:44;22.55;;;8.30;;
61385;SDS011;47256;18.904;-99.054;2023-12-04T05:37:11;14.48;;;8.68;;
61385;SDS011;47256;18.904;-99.054;2023-12-04T05:39:40;15.60;;;8.80;;
61385;SDS011;47256;18.904;-99.054;2023-12-04T05:42:08;16.88;;;9.38;;
61385;SDS011;47256;18.904;-99.054;2023-12-04T05:44:36;15.63;;;8.88;;
61385;SDS011;47256;18.904;-99.054;2023-12-04T05:47:03;16.77;;;8.35;;
61385;SDS011;47256;18.904;-99.054;2023-12-04T05:49:33;14.27;;;8.57;;
61385;SDS011;47256;18.904;-99.054;2023-12-04T05:52:01;17.90;;;9.27;;
61385;SDS011;47256;18.904;-99.054;2023-12-04T05:54:29;20.83;;;10.68;;
61385;SDS011;47256;18.904;-99.054;2023-12-04T05:56:56;14.55;;;9.07;;
61385;SDS011;47256;18.904;-99.054;2023-12-04T05:59:24;18.63;;;10.07;;
61385;SDS011;47256;18.904;-99.054;2023-12-04T06:01:52;15.68;;;9.48;;
61385;SDS011;47256;18.904;-99.054;2023-12-04T06:04:21;16.35;;;10.10;;
61385;SDS011;47256;18.904;-99.054;2023-12-04T06:06:48;13.27;;;8.82;;
61385;SDS011;47256;18.904;-99.054;2023-12-04T06:09:16;18.15;;;9.07;;
61385;SDS011;47256;18.904;-99.054;2023-12-04T06:11:44;18.08;;;10.48;;
61385;SDS011;47256;18.904;-99.054;2023-12-04T06:14:11;14.18;;;9.80;;
61385;SDS011;47256;18.904;-99.054;2023-12-04T06:16:39;13.77;;;9.02;;
61385;SDS011;47256;18.904;-99.054;2023-12-04T06:19:06;16.48;;;9.80;;
61385;SDS011;47256;18.904;-99.054;2023-12-04T06:21:34;22.55;;;10.18;;
61385;SDS011;47256;18.904;-99.054;2023-12-04T06:24:02;17.88;;;9.77;;
61385;SDS011;47256;18.904;-99.054;2023-12-04T06:26:30;14.40;;;9.82;;
61385;SDS011;47256;18.904;-99.054;2023-12-04T06:29:01;15.73;;;9.98;;
61385;SDS011;47256;18.904;-99.054;2023-12-04T06:31:28;16.17;;;9.88;;
61385;SDS011;47256;18.904;-99.054;2023-12-04T06:33:56;15.98;;;9.88;;
61385;SDS011;47256;18.904;-99.054;2023-12-04T06:36:23;16.38;;;8.75;;
61385;SDS011;47256;18.904;-99.054;2023-12-04T06:38:52;14.88;;;9.52;;
61385;SDS011;47256;18.904;-99.054;2023-12-04T06:41:20;14.38;;;9.98;;
61385;SDS011;47256;18.904;-99.054;2023-12-04T06:43:48;16.85;;;10.45;;
61385;SDS011;47256;18.904;-99.054;2023-12-04T06:46:16;18.42;;;9.85;;
61385;SDS011;47256;18.904;-99.054;2023-12-04T06:48:45;17.20;;;8.85;;
61385;SDS011;47256;18.904;-99.054;2023-12-04T06:51:16;20.13;;;10.20;;
61385;SDS011;47256;18.904;-99.054;2023-12-04T06:53:44;22.65;;;9.77;;
61385;SDS011;47256;18.904;-99.054;2023-12-04T06:56:11;19.83;;;11.52;;
61385;SDS011;47256;18.904;-99.054;2023-12-04T06:58:39;22.15;;;11.75;;
61385;SDS011;47256;18.904;-99.054;2023-12-04T07:01:06;19.40;;;9.82;;
61385;SDS011;47256;18.904;-99.054;2023-12-04T07:03:35;19.00;;;12.70;;
61385;SDS011;47256;18.904;-99.054;2023-12-04T07:06:02;15.10;;;11.15;;
61385;SDS011;47256;18.904;-99.054;2023-12-04T07:08:30;17.00;;;10.77;;
61385;SDS011;47256;18.904;-99.054;2023-12-04T07:10:57;18.08;;;10.23;;
61385;SDS011;47256;18.904;-99.054;2023-12-04T07:13:25;20.42;;;11.05;;
61385;SDS011;47256;18.904;-99.054;2023-12-04T07:15:53;18.15;;;9.93;;
61385;SDS011;47256;18.904;-99.054;2023-12-04T07:18:21;20.73;;;9.95;;
61385;SDS011;47256;18.904;-99.054;2023-12-04T07:20:48;19.63;;;9.75;;
61385;SDS011;47256;18.904;-99.054;2023-12-04T07:23:16;22.27;;;11.73;;
61385;SDS011;47256;18.904;-99.054;2023-12-04T07:25:43;22.63;;;11.90;;
61385;SDS011;47256;18.904;-99.054;2023-12-04T07:28:11;15.32;;;10.77;;
61385;SDS011;47256;18.904;-99.054;2023-12-04T07:30:39;19.38;;;10.52;;
61385;SDS011;47256;18.904;-99.054;2023-12-04T07:33:06;18.80;;;11.00;;
61385;SDS011;47256;18.904;-99.054;2023-12-04T07:35:34;19.85;;;10.15;;
61385;SDS011;47256;18.904;-99.054;2023-12-04T07:38:02;17.17;;;11.32;;
61385;SDS011;47256;18.904;-99.054;2023-12-04T07:40:29;23.05;;;10.60;;
61385;SDS011;47256;18.904;-99.054;2023-12-04T07:42:56;17.88;;;10.27;;
61385;SDS011;47256;18.904;-99.054;2023-12-04T07:45:23;12.07;;;9.20;;
61385;SDS011;47256;18.904;-99.054;2023-12-04T07:47:52;17.08;;;9.85;;
61385;SDS011;47256;18.904;-99.054;2023-12-04T07:50:21;13.90;;;10.18;;
61385;SDS011;47256;18.904;-99.054;2023-12-04T07:52:50;17.42;;;9.63;;
61385;SDS011;47256;18.904;-99.054;2023-12-04T07:55:18;19.38;;;10.45;;
61385;SDS011;47256;18.904;-99.054;2023-12-04T07:57:45;17.15;;;11.20;;
61385;SDS011;47256;18.904;-99.054;2023-12-04T08:00:14;22.38;;;12.18;;
61385;SDS011;47256;18.904;-99.054;2023-12-04T08:02:44;22.70;;;12.52;;
61385;SDS011;47256;18.904;-99.054;2023-12-04T08:05:12;23.88;;;11.23;;
61385;SDS011;47256;18.904;-99.054;2023-12-04T08:07:40;19.45;;;11.23;;
61385;SDS011;47256;18.904;-99.054;2023-12-04T08:10:07;22.95;;;10.75;;
61385;SDS011;47256;18.904;-99.054;2023-12-04T08:12:35;17.92;;;10.77;;
61385;SDS011;47256;18.904;-99.054;2023-12-04T08:15:02;21.08;;;11.00;;
61385;SDS011;47256;18.904;-99.054;2023-12-04T08:17:30;17.52;;;10.90;;
61385;SDS011;47256;18.904;-99.054;2023-12-04T08:19:59;20.80;;;10.68;;
61385;SDS011;47256;18.904;-99.054;2023-12-04T08:22:27;15.00;;;9.45;;
61385;SDS011;47256;18.904;-99.054;2023-12-04T08:24:55;17.35;;;10.73;;
61385;SDS011;47256;18.904;-99.054;2023-12-04T08:27:24;18.83;;;10.68;;
61385;SDS011;47256;18.904;-99.054;2023-12-04T08:29:51;15.50;;;9.98;;
61385;SDS011;47256;18.904;-99.054;2023-12-04T08:32:18;19.30;;;9.52;;
61385;SDS011;47256;18.904;-99.054;2023-12-04T08:34:47;21.67;;;10.40;;
61385;SDS011;47256;18.904;-99.054;2023-12-04T08:37:14;11.45;;;9.60;;
61385;SDS011;47256;18.904;-99.054;2023-12-04T08:39:41;21.70;;;9.15;;
61385;SDS011;47256;18.904;-99.054;2023-12-04T08:42:08;18.83;;;9.57;;
61385;SDS011;47256;18.904;-99.054;2023-12-04T08:44:36;14.95;;;9.25;;
61385;SDS011;47256;18.904;-99.054;2023-12-04T08:47:03;14.18;;;9.27;;
61385;SDS011;47256;18.904;-99.054;2023-12-04T08:49:30;16.45;;;9.45;;
61385;SDS011;47256;18.904;-99.054;2023-12-04T08:51:58;17.70;;;9.65;;
61385;SDS011;47256;18.904;-99.054;2023-12-04T08:54:26;20.00;;;10.50;;
61385;SDS011;47256;18.904;-99.054;2023-12-04T08:56:53;14.60;;;9.65;;
61385;SDS011;47256;18.904;-99.054;2023-12-04T08:59:22;14.98;;;10.00;;
61385;SDS011;47256;18.904;-99.054;2023-12-04T09:01:49;17.02;;;10.27;;
61385;SDS011;47256;18.904;-99.054;2023-12-04T09:04:17;15.30;;;9.68;;
61385;SDS011;47256;18.904;-99.054;2023-12-04T09:06:45;18.15;;;9.38;;
61385;SDS011;47256;18.904;-99.054;2023-12-04T09:09:12;15.77;;;9.90;;
61385;SDS011;47256;18.904;-99.054;2023-12-04T09:11:42;17.83;;;10.32;;
61385;SDS011;47256;18.904;-99.054;2023-12-04T09:14:09;21.33;;;9.27;;
61385;SDS011;47256;18.904;-99.054;2023-12-04T09:16:37;12.27;;;8.88;;
61385;SDS011;47256;18.904;-99.054;2023-12-04T09:19:05;13.75;;;8.93;;
61385;SDS011;47256;18.904;-99.054;2023-12-04T09:21:32;14.98;;;9.27;;
61385;SDS011;47256;18.904;-99.054;2023-12-04T09:24:00;12.88;;;9.15;;
61385;SDS011;47256;18.904;-99.054;2023-12-04T09:26:27;12.65;;;8.77;;
61385;SDS011;47256;18.904;-99.054;2023-12-04T09:28:54;19.42;;;9.77;;
61385;SDS011;47256;18.904;-99.054;2023-12-04T09:31:22;14.40;;;9.90;;
61385;SDS011;47256;18.904;-99.054;2023-12-04T09:33:50;13.90;;;9.10;;
61385;SDS011;47256;18.904;-99.054;2023-12-04T09:36:18;13.23;;;9.70;;
61385;SDS011;47256;18.904;-99.054;2023-12-04T09:38:45;14.00;;;8.40;;
61385;SDS011;47256;18.904;-99.054;2023-12-04T09:41:12;15.77;;;9.75;;
61385;SDS011;47256;18.904;-99.054;2023-12-04T09:43:41;11.68;;;9.32;;
61385;SDS011;47256;18.904;-99.054;2023-12-04T09:46:11;15.15;;;9.82;;
61385;SDS011;47256;18.904;-99.054;2023-12-04T09:48:38;22.48;;;10.80;;
61385;SDS011;47256;18.904;-99.054;2023-12-04T09:51:09;18.30;;;11.57;;
61385;SDS011;47256;18.904;-99.054;2023-12-04T09:53:37;20.70;;;12.02;;
61385;SDS011;47256;18.904;-99.054;2023-12-04T09:56:07;23.50;;;11.70;;
61385;SDS011;47256;18.904;-99.054;2023-12-04T09:58:35;27.20;;;12.30;;
61385;SDS011;47256;18.904;-99.054;2023-12-04T10:01:06;23.48;;;11.90;;
61385;SDS011;47256;18.904;-99.054;2023-12-04T10:03:35;22.73;;;12.02;;
61385;SDS011;47256;18.904;-99.054;2023-12-04T10:06:05;26.38;;;12.43;;
61385;SDS011;47256;18.904;-99.054;2023-12-04T10:08:34;20.83;;;10.90;;
61385;SDS011;47256;18.904;-99.054;2023-12-04T10:11:02;38.40;;;13.85;;
61385;SDS011;47256;18.904;-99.054;2023-12-04T10:13:29;19.55;;;12.18;;
61385;SDS011;47256;18.904;-99.054;2023-12-04T10:15:56;21.17;;;12.32;;
61385;SDS011;47256;18.904;-99.054;2023-12-04T10:18:27;18.90;;;12.20;;
61385;SDS011;47256;18.904;-99.054;2023-12-04T10:20:58;19.88;;;12.52;;
61385;SDS011;47256;18.904;-99.054;2023-12-04T10:23:38;19.27;;;12.50;;
61385;SDS011;47256;18.904;-99.054;2023-12-04T10:26:08;24.27;;;12.60;;
61385;SDS011;47256;18.904;-99.054;2023-12-04T10:28:42;24.40;;;12.27;;
61385;SDS011;47256;18.904;-99.054;2023-12-04T10:31:26;16.35;;;12.10;;
61385;SDS011;47256;18.904;-99.054;2023-12-04T10:34:00;27.70;;;11.70;;
61385;SDS011;47256;18.904;-99.054;2023-12-04T10:36:30;17.42;;;10.85;;
61385;SDS011;47256;18.904;-99.054;2023-12-04T10:38:59;19.83;;;10.95;;
61385;SDS011;47256;18.904;-99.054;2023-12-04T10:41:27;18.65;;;10.25;;
61385;SDS011;47256;18.904;-99.054;2023-12-04T10:43:56;24.52;;;10.77;;
61385;SDS011;47256;18.904;-99.054;2023-12-04T10:46:27;22.70;;;10.77;;
61385;SDS011;47256;18.904;-99.054;2023-12-04T10:48:55;15.98;;;10.45;;
61385;SDS011;47256;18.904;-99.054;2023-12-04T10:51:24;15.38;;;10.05;;
61385;SDS011;47256;18.904;-99.054;2023-12-04T10:53:54;14.35;;;10.00;;
61385;SDS011;47256;18.904;-99.054;2023-12-04T10:56:40;16.55;;;10.65;;
61385;SDS011;47256;18.904;-99.054;2023-12-04T10:59:11;17.42;;;9.88;;
61385;SDS011;47256;18.904;-99.054;2023-12-04T11:01:44;18.65;;;10.70;;
61385;SDS011;47256;18.904;-99.054;2023-12-04T11:04:14;15.48;;;10.43;;
61385;SDS011;47256;18.904;-99.054;2023-12-04T11:06:49;14.88;;;10.68;;
61385;SDS011;47256;18.904;-99.054;2023-12-04T11:09:22;15.38;;;10.50;;
61385;SDS011;47256;18.904;-99.054;2023-12-04T11:11:53;22.33;;;10.45;;
61385;SDS011;47256;18.904;-99.054;2023-12-04T11:14:27;22.63;;;10.70;;
61385;SDS011;47256;18.904;-99.054;2023-12-04T11:17:02;21.48;;;10.45;;
61385;SDS011;47256;18.904;-99.054;2023-12-04T11:22:34;17.02;;;10.05;;
61385;SDS011;47256;18.904;-99.054;2023-12-04T11:25:05;13.68;;;10.20;;
61385;SDS011;47256;18.904;-99.054;2023-12-04T11:27:34;18.85;;;9.88;;
61385;SDS011;47256;18.904;-99.054;2023-12-04T11:30:02;12.02;;;9.20;;
61385;SDS011;47256;18.904;-99.054;2023-12-04T11:32:32;19.27;;;11.25;;
61385;SDS011;47256;18.904;-99.054;2023-12-04T11:35:15;15.57;;;9.38;;
61385;SDS011;47256;18.904;-99.054;2023-12-04T11:37:46;16.67;;;10.10;;
61385;SDS011;47256;18.904;-99.054;2023-12-04T11:40:15;17.17;;;10.40;;
61385;SDS011;47256;18.904;-99.054;2023-12-04T11:42:43;19.45;;;10.90;;
61385;SDS011;47256;18.904;-99.054;2023-12-04T11:45:17;19.50;;;10.10;;
61385;SDS011;47256;18.904;-99.054;2023-12-04T11:50:26;17.23;;;9.80;;
61385;SDS011;47256;18.904;-99.054;2023-12-04T11:52:58;19.77;;;10.10;;
61385;SDS011;47256;18.904;-99.054;2023-12-04T11:55:30;16.92;;;10.77;;
61385;SDS011;47256;18.904;-99.054;2023-12-04T11:58:01;17.10;;;9.30;;
61385;SDS011;47256;18.904;-99.054;2023-12-04T12:00:42;27.20;;;10.30;;
61385;SDS011;47256;18.904;-99.054;2023-12-04T12:03:10;17.30;;;10.43;;
61385;SDS011;47256;18.904;-99.054;2023-12-04T12:05:41;15.85;;;10.93;;
61385;SDS011;47256;18.904;-99.054;2023-12-04T12:08:09;21.08;;;10.77;;
61385;SDS011;47256;18.904;-99.054;2023-12-04T12:10:37;19.67;;;10.15;;
61385;SDS011;47256;18.904;-99.054;2023-12-04T12:13:04;18.08;;;10.05;;
61385;SDS011;47256;18.904;-99.054;2023-12-04T12:15:32;21.30;;;12.25;;
61385;SDS011;47256;18.904;-99.054;2023-12-04T12:17:59;15.32;;;10.80;;
61385;SDS011;47256;18.904;-99.054;2023-12-04T12:20:28;18.48;;;11.57;;
61385;SDS011;47256;18.904;-99.054;2023-12-04T12:22:55;21.05;;;11.50;;
61385;SDS011;47256;18.904;-99.054;2023-12-04T12:25:23;18.88;;;11.45;;
61385;SDS011;47256;18.904;-99.054;2023-12-04T12:27:52;24.98;;;13.18;;
61385;SDS011;47256;18.904;-99.054;2023-12-04T12:30:19;18.83;;;12.07;;
61385;SDS011;47256;18.904;-99.054;2023-12-04T12:32:47;19.67;;;11.63;;
61385;SDS011;47256;18.904;-99.054;2023-12-04T12:35:17;21.17;;;11.73;;
61385;SDS011;47256;18.904;-99.054;2023-12-04T12:37:44;16.70;;;11.82;;
61385;SDS011;47256;18.904;-99.054;2023-12-04T12:40:12;19.38;;;11.68;;
61385;SDS011;47256;18.904;-99.054;2023-12-04T12:42:40;17.02;;;11.93;;
61385;SDS011;47256;18.904;-99.054;2023-12-04T12:45:10;29.20;;;12.88;;
61385;SDS011;47256;18.904;-99.054;2023-12-04T12:47:42;21.23;;;12.25;;
61385;SDS011;47256;18.904;-99.054;2023-12-04T12:50:13;24.23;;;12.95;;
61385;SDS011;47256;18.904;-99.054;2023-12-04T12:52:43;26.95;;;14.30;;
61385;SDS011;47256;18.904;-99.054;2023-12-04T12:55:11;21.40;;;13.25;;
61385;SDS011;47256;18.904;-99.054;2023-12-04T12:57:49;22.20;;;13.60;;
61385;SDS011;47256;18.904;-99.054;2023-12-04T13:00:17;33.78;;;13.90;;
61385;SDS011;47256;18.904;-99.054;2023-12-04T13:02:47;19.00;;;11.63;;
61385;SDS011;47256;18.904;-99.054;2023-12-04T13:05:14;21.77;;;13.55;;
61385;SDS011;47256;18.904;-99.054;2023-12-04T13:07:43;24.05;;;13.13;;
61385;SDS011;47256;18.904;-99.054;2023-12-04T13:10:11;24.10;;;13.07;;
61385;SDS011;47256;18.904;-99.054;2023-12-04T13:12:38;21.30;;;12.25;;
61385;SDS011;47256;18.904;-99.054;2023-12-04T13:15:06;20.80;;;13.02;;
61385;SDS011;47256;18.904;-99.054;2023-12-04T13:17:35;30.17;;;14.13;;
61385;SDS011;47256;18.904;-99.054;2023-12-04T13:20:03;22.23;;;12.73;;
61385;SDS011;47256;18.904;-99.054;2023-12-04T13:22:31;18.60;;;13.38;;
61385;SDS011;47256;18.904;-99.054;2023-12-04T13:24:59;30.02;;;13.65;;
61385;SDS011;47256;18.904;-99.054;2023-12-04T13:27:28;20.50;;;12.63;;
61385;SDS011;47256;18.904;-99.054;2023-12-04T13:29:55;21.92;;;12.95;;
61385;SDS011;47256;18.904;-99.054;2023-12-04T13:32:23;19.88;;;12.10;;
61385;SDS011;47256;18.904;-99.054;2023-12-04T13:34:50;22.55;;;11.73;;
61385;SDS011;47256;18.904;-99.054;2023-12-04T13:37:18;22.05;;;12.35;;
61385;SDS011;47256;18.904;-99.054;2023-12-04T13:39:45;16.88;;;11.85;;
61385;SDS011;47256;18.904;-99.054;2023-12-04T13:42:24;24.65;;;11.98;;
61385;SDS011;47256;18.904;-99.054;2023-12-04T13:45:09;19.30;;;12.82;;
61385;SDS011;47256;18.904;-99.054;2023-12-04T13:47:38;17.75;;;12.15;;
61385;SDS011;47256;18.904;-99.054;2023-12-04T13:50:06;17.90;;;11.70;;
61385;SDS011;47256;18.904;-99.054;2023-12-04T13:52:35;34.22;;;14.48;;
61385;SDS011;47256;18.904;-99.054;2023-12-04T13:55:05;26.45;;;13.30;;
61385;SDS011;47256;18.904;-99.054;2023-12-04T13:57:53;23.95;;;12.85;;
61385;SDS011;47256;18.904;-99.054;2023-12-04T14:00:26;32.00;;;14.25;;
61385;SDS011;47256;18.904;-99.054;2023-12-04T14:02:55;27.05;;;13.82;;
61385;SDS011;47256;18.904;-99.054;2023-12-04T14:05:33;29.02;;;14.07;;
61385;SDS011;47256;18.904;-99.054;2023-12-04T14:08:01;25.52;;;14.02;;
61385;SDS011;47256;18.904;-99.054;2023-12-04T14:10:30;21.30;;;13.45;;
61385;SDS011;47256;18.904;-99.054;2023-12-04T14:13:01;29.42;;;14.73;;
61385;SDS011;47256;18.904;-99.054;2023-12-04T14:15:28;31.13;;;15.65;;
61385;SDS011;47256;18.904;-99.054;2023-12-04T14:17:57;22.27;;;14.73;;